Time;durP1;ratioP1;P1;durP2;ratioP2;P2;SDS_P1;SDS_P2;PMS_P1;PMS_P2;Temp;Humidity;BMP_temperature;BMP_pressure;BME280_temperature;BME280_humidity;BME280_pressure;Samples;Min_cycle;Max_cycle;Signal;HPM_P1;HPM_P2
2022/10/13 00:01:17;;;;;;;32.58;16.50;;;8.40;99.90;;;;;;5041577;28;20056;-78
2022/10/13 00:03:45;;;;;;;35.33;18.75;;;8.40;99.90;;;;;;5058901;28;20086;-77
2022/10/13 00:06:13;;;;;;;32.50;17.95;;;8.40;99.90;;;;;;5056645;28;20044;-79
2022/10/13 00:08:40;;;;;;;35.63;18.20;;;8.40;99.90;;;;;;5055186;28;20056;-78
2022/10/13 00:11:19;;;;;;;33.70;17.33;;;8.50;99.90;;;;;;5076788;28;20044;-77
2022/10/13 00:13:46;;;;;;;33.17;18.95;;;8.50;99.90;;;;;;5077995;28;20040;-77
2022/10/13 00:16:14;;;;;;;41.92;18.80;;;8.40;99.90;;;;;;5059574;28;20055;-78
2022/10/13 00:18:40;;;;;;;33.70;17.88;;;8.50;99.90;;;;;;5050644;28;20049;-79
2022/10/13 00:21:08;;;;;;;36.13;18.35;;;8.50;99.90;;;;;;5029003;28;20044;-78
2022/10/13 00:23:34;;;;;;;33.75;17.60;;;8.50;99.90;;;;;;5059023;28;20052;-77
2022/10/13 00:26:06;;;;;;;32.58;18.13;;;8.50;99.90;;;;;;5054099;28;20047;-77
2022/10/13 00:28:32;;;;;;;35.38;19.25;;;8.50;99.90;;;;;;5060060;28;20061;-77
2022/10/13 00:30:58;;;;;;;33.38;18.65;;;8.50;99.90;;;;;;5074995;28;20489;-79
2022/10/13 00:33:24;;;;;;;30.02;17.92;;;8.60;99.90;;;;;;5032240;28;20048;-77
2022/10/13 00:35:50;;;;;;;34.30;19.02;;;8.50;99.90;;;;;;5077068;28;20129;-78
2022/10/13 00:38:18;;;;;;;35.67;18.58;;;8.50;99.90;;;;;;5054527;28;20070;-77
2022/10/13 00:40:55;;;;;;;31.65;17.17;;;8.50;99.90;;;;;;5051771;28;20053;-77
2022/10/13 00:43:24;;;;;;;33.35;17.17;;;8.50;99.90;;;;;;5071443;28;20106;-77
2022/10/13 00:45:51;;;;;;;34.50;17.70;;;8.50;99.90;;;;;;5047654;28;20130;-77
2022/10/13 00:48:26;;;;;;;34.05;18.25;;;8.50;99.90;;;;;;5054971;28;20048;-77
2022/10/13 00:50:52;;;;;;;34.67;19.77;;;8.50;99.90;;;;;;5072094;28;20143;-78
2022/10/13 00:53:21;;;;;;;33.97;17.75;;;8.50;99.90;;;;;;5026122;28;20106;-78
2022/10/13 00:55:49;;;;;;;33.38;18.52;;;8.50;99.90;;;;;;5071673;28;20047;-78
2022/10/13 00:58:18;;;;;;;35.83;19.00;;;8.50;99.90;;;;;;5049510;28;20040;-78
2022/10/13 01:00:47;;;;;;;33.70;17.65;;;8.50;99.90;;;;;;5038578;28;20424;-77
2022/10/13 01:03:13;;;;;;;31.95;18.20;;;8.60;99.90;;;;;;5052828;28;20084;-77
2022/10/13 01:05:40;;;;;;;41.60;19.75;;;8.50;99.90;;;;;;5035077;28;20094;-79
2022/10/13 01:08:07;;;;;;;34.20;17.30;;;8.50;99.90;;;;;;5053051;28;20378;-77
2022/10/13 01:10:55;;;;;;;38.30;18.85;;;8.50;99.90;;;;;;5070053;28;20056;-77
2022/10/13 01:13:45;;;;;;;34.53;19.02;;;8.60;99.90;;;;;;5069982;28;20126;-77
2022/10/13 01:16:22;;;;;;;32.55;18.80;;;8.60;99.90;;;;;;5063578;28;20048;-81
2022/10/13 01:19:22;;;;;;;37.00;18.02;;;8.60;99.90;;;;;;5065576;28;20048;-78
2022/10/13 01:22:00;;;;;;;26.70;17.60;;;8.60;99.90;;;;;;5032953;28;20067;-78
2022/10/13 01:24:54;;;;;;;32.85;17.27;;;8.60;99.90;;;;;;5070058;28;20078;-77
2022/10/13 01:27:29;;;;;;;31.08;17.90;;;8.60;99.90;;;;;;5070533;28;20514;-77
2022/10/13 01:30:16;;;;;;;31.15;18.33;;;8.60;99.90;;;;;;5067691;28;20120;-77
2022/10/13 01:33:12;;;;;;;42.17;18.15;;;8.60;99.90;;;;;;5050653;28;20058;-78
2022/10/13 01:35:37;;;;;;;47.40;20.33;;;8.70;99.90;;;;;;5051972;28;20143;-78
2022/10/13 01:38:22;;;;;;;42.03;19.30;;;8.70;99.90;;;;;;5052065;28;20135;-78
2022/10/13 01:41:14;;;;;;;33.83;18.60;;;8.60;99.90;;;;;;5059636;28;20479;-77
2022/10/13 01:43:56;;;;;;;33.40;18.42;;;8.70;99.90;;;;;;5041643;28;20718;-77
2022/10/13 01:46:32;;;;;;;35.10;19.73;;;8.60;99.90;;;;;;5051433;28;20179;-78
2022/10/13 01:49:00;;;;;;;40.85;19.33;;;8.70;99.90;;;;;;5055268;28;20083;-78
2022/10/13 01:51:29;;;;;;;35.55;20.85;;;8.70;99.90;;;;;;5051785;28;20032;-78
2022/10/13 01:53:55;;;;;;;40.03;20.77;;;8.70;99.90;;;;;;5049403;28;20040;-78
2022/10/13 01:56:20;;;;;;;33.15;19.35;;;8.70;99.90;;;;;;5034258;28;20105;-78
2022/10/13 01:58:48;;;;;;;40.17;20.42;;;8.70;99.90;;;;;;5048567;28;20044;-78
2022/10/13 02:01:26;;;;;;;37.92;19.38;;;8.70;99.90;;;;;;5066112;28;20102;-77
2022/10/13 02:04:00;;;;;;;39.17;19.73;;;8.70;99.90;;;;;;5053136;28;20040;-78
2022/10/13 02:06:31;;;;;;;40.60;19.95;;;8.70;99.90;;;;;;5062210;28;20133;-78
2022/10/13 02:09:20;;;;;;;40.28;20.25;;;8.70;99.90;;;;;;5085615;28;20151;-78
2022/10/13 02:12:11;;;;;;;36.78;20.00;;;8.70;99.90;;;;;;5067320;28;20098;-78
2022/10/13 02:14:41;;;;;;;34.25;18.92;;;8.70;99.90;;;;;;5063525;28;20550;-77
2022/10/13 02:17:07;;;;;;;39.25;19.50;;;8.60;99.90;;;;;;5050446;28;20771;-78
2022/10/13 02:19:35;;;;;;;36.13;20.23;;;8.60;99.90;;;;;;5047881;28;20081;-78
2022/10/13 02:22:01;;;;;;;37.33;19.70;;;8.60;99.90;;;;;;5060346;28;20048;-77
2022/10/13 02:24:28;;;;;;;40.67;20.27;;;8.60;99.90;;;;;;5062244;28;20040;-78
2022/10/13 02:26:54;;;;;;;34.42;18.80;;;8.60;99.90;;;;;;5066834;28;20048;-77
2022/10/13 02:29:20;;;;;;;37.00;20.10;;;8.60;99.90;;;;;;5052257;28;20039;-77
2022/10/13 02:31:46;;;;;;;40.13;20.40;;;8.60;99.90;;;;;;5037008;28;20036;-77
2022/10/13 02:34:13;;;;;;;32.15;18.20;;;8.60;99.90;;;;;;5067253;28;20059;-77
2022/10/13 02:36:39;;;;;;;37.47;19.13;;;8.50;99.90;;;;;;5054915;28;20126;-77
2022/10/13 02:39:07;;;;;;;40.47;19.33;;;8.50;99.90;;;;;;5043260;28;20565;-77
2022/10/13 02:41:32;;;;;;;35.92;19.27;;;8.50;99.90;;;;;;5033015;28;20453;-78
2022/10/13 02:43:58;;;;;;;37.67;19.52;;;8.50;99.90;;;;;;5067636;28;20048;-77
2022/10/13 02:46:24;;;;;;;34.88;18.80;;;8.50;99.90;;;;;;5069173;28;20047;-80
2022/10/13 02:48:50;;;;;;;33.33;19.25;;;8.50;99.90;;;;;;5059473;28;20086;-77
2022/10/13 02:51:16;;;;;;;32.50;18.52;;;8.50;99.90;;;;;;5041837;28;20040;-77
2022/10/13 02:53:41;;;;;;;31.88;18.63;;;8.60;99.90;;;;;;5053331;28;20052;-79
2022/10/13 02:56:07;;;;;;;36.25;18.45;;;8.60;99.90;;;;;;5068386;28;20048;-77
2022/10/13 02:58:33;;;;;;;33.58;18.70;;;8.60;99.90;;;;;;5070968;28;20051;-77
2022/10/13 03:01:11;;;;;;;35.22;19.05;;;8.60;99.90;;;;;;5033949;28;20048;-78
2022/10/13 03:03:37;;;;;;;37.42;19.55;;;8.70;99.90;;;;;;5070670;28;20055;-79
2022/10/13 03:06:04;;;;;;;35.90;19.90;;;8.70;99.90;;;;;;5077138;28;20063;-77
2022/10/13 03:08:31;;;;;;;31.80;18.10;;;8.70;99.90;;;;;;5050520;28;20060;-79
2022/10/13 03:10:57;;;;;;;39.85;20.92;;;8.70;99.90;;;;;;5067708;28;20520;-77
2022/10/13 03:13:23;;;;;;;30.30;18.85;;;8.80;99.90;;;;;;5053162;28;20044;-79
2022/10/13 03:15:49;;;;;;;36.05;20.23;;;9.00;99.90;;;;;;5037553;28;20046;-78
2022/10/13 03:18:14;;;;;;;34.10;18.23;;;8.80;99.90;;;;;;5055163;28;20048;-77
2022/10/13 03:20:40;;;;;;;34.60;19.73;;;8.80;99.90;;;;;;5050792;28;20122;-78
2022/10/13 03:23:06;;;;;;;38.25;19.70;;;8.90;99.90;;;;;;5027763;28;20047;-78
2022/10/13 03:25:36;;;;;;;32.00;18.25;;;9.00;99.90;;;;;;5066516;28;20052;-79
2022/10/13 03:28:02;;;;;;;33.25;20.15;;;8.90;99.90;;;;;;5065504;28;20056;-77
2022/10/13 03:30:28;;;;;;;33.08;19.42;;;8.90;99.90;;;;;;5062605;28;20544;-77
2022/10/13 03:32:54;;;;;;;36.58;20.73;;;8.90;99.90;;;;;;5038272;28;20132;-78
2022/10/13 03:35:19;;;;;;;40.78;21.75;;;8.90;99.90;;;;;;5049877;28;20102;-78
2022/10/13 03:37:45;;;;;;;47.15;23.30;;;9.00;99.90;;;;;;5049428;28;20052;-77
2022/10/13 03:40:11;;;;;;;36.85;21.17;;;9.00;99.90;;;;;;5045723;28;20559;-77
2022/10/13 03:42:37;;;;;;;39.28;21.42;;;9.00;99.90;;;;;;5046238;28;20138;-78
2022/10/13 03:45:04;;;;;;;35.65;20.50;;;9.00;99.90;;;;;;5062914;28;20772;-77
2022/10/13 03:47:30;;;;;;;40.58;21.98;;;9.00;99.90;;;;;;5038614;28;20435;-78
2022/10/13 03:49:56;;;;;;;39.17;22.45;;;9.00;99.90;;;;;;5060885;28;20045;-79
2022/10/13 03:52:21;;;;;;;41.47;23.75;;;9.10;99.90;;;;;;5053641;28;20117;-77
2022/10/13 03:54:48;;;;;;;40.75;23.80;;;9.00;99.90;;;;;;5051848;28;20098;-77
2022/10/13 03:57:13;;;;;;;44.40;23.67;;;9.10;99.90;;;;;;5050346;28;20576;-77
2022/10/13 03:59:40;;;;;;;48.65;25.13;;;9.10;99.90;;;;;;5024737;28;20146;-77
2022/10/13 04:02:06;;;;;;;45.88;24.73;;;9.20;99.90;;;;;;5037135;28;20040;-77
2022/10/13 04:04:32;;;;;;;44.85;24.67;;;9.10;99.90;;;;;;5047953;28;20063;-78
2022/10/13 04:06:58;;;;;;;47.10;24.63;;;9.00;99.90;;;;;;5062636;28;21502;-77
2022/10/13 04:09:24;;;;;;;47.03;23.73;;;9.10;99.90;;;;;;5049791;28;20190;-77
2022/10/13 04:11:50;;;;;;;48.78;24.85;;;9.20;99.90;;;;;;5040630;28;20040;-77
2022/10/13 04:14:22;;;;;;;46.97;24.75;;;9.40;99.90;;;;;;5042588;28;20090;-77
2022/10/13 04:16:47;;;;;;;50.92;26.08;;;9.20;99.90;;;;;;5076682;28;20490;-77
2022/10/13 04:19:15;;;;;;;48.28;25.92;;;9.20;99.90;;;;;;5044990;28;20608;-78
2022/10/13 04:21:41;;;;;;;52.42;25.92;;;9.20;99.90;;;;;;5062241;28;20044;-79
2022/10/13 04:24:08;;;;;;;49.13;26.50;;;9.20;99.90;;;;;;5066126;28;20055;-81
2022/10/13 04:26:35;;;;;;;48.97;25.73;;;9.20;99.90;;;;;;5068015;28;20436;-79
2022/10/13 04:29:03;;;;;;;52.78;26.35;;;9.20;99.90;;;;;;5038785;28;20113;-79
2022/10/13 04:31:30;;;;;;;55.63;27.10;;;9.30;99.90;;;;;;5052481;28;20542;-79
2022/10/13 04:33:56;;;;;;;50.95;28.10;;;9.30;99.90;;;;;;5038184;28;20040;-79
2022/10/13 04:36:22;;;;;;;49.83;26.80;;;9.30;99.90;;;;;;5054560;28;20055;-79
2022/10/13 04:38:48;;;;;;;49.70;28.05;;;9.30;99.90;;;;;;5033260;28;20056;-78
2022/10/13 04:41:15;;;;;;;60.50;29.70;;;9.20;99.90;;;;;;5051023;28;20474;-81
2022/10/13 04:43:41;;;;;;;49.13;27.30;;;9.20;99.90;;;;;;5054015;28;20071;-83
2022/10/13 04:46:11;;;;;;;60.50;29.35;;;9.30;99.90;;;;;;5063581;28;20068;-79
2022/10/13 04:48:37;;;;;;;57.30;29.13;;;9.30;99.90;;;;;;5053506;28;20043;-80
2022/10/13 04:51:05;;;;;;;60.30;30.23;;;9.20;99.90;;;;;;5052224;28;20044;-80
2022/10/13 04:53:31;;;;;;;58.88;30.85;;;9.60;99.90;;;;;;5070283;28;20143;-80
2022/10/13 04:56:10;;;;;;;55.10;29.85;;;9.20;99.90;;;;;;5053343;28;20147;-80
2022/10/13 04:58:37;;;;;;;55.85;29.58;;;9.30;99.90;;;;;;5053827;28;20040;-80
2022/10/13 05:01:04;;;;;;;67.93;32.17;;;9.30;99.90;;;;;;5069425;28;20047;-81
2022/10/13 05:03:30;;;;;;;67.20;32.95;;;9.30;99.90;;;;;;5071507;28;20551;-78
2022/10/13 05:05:56;;;;;;;57.92;30.35;;;9.30;99.90;;;;;;5064668;28;20043;-78
2022/10/13 05:08:22;;;;;;;71.15;33.90;;;9.30;99.90;;;;;;5050631;28;20546;-78
2022/10/13 05:11:01;;;;;;;72.78;34.75;;;9.30;99.90;;;;;;5046916;28;20048;-80
2022/10/13 05:13:28;;;;;;;73.40;33.47;;;9.40;99.90;;;;;;5042756;28;20159;-79
2022/10/13 05:15:54;;;;;;;70.03;33.42;;;9.30;99.90;;;;;;5050289;28;20140;-81
2022/10/13 05:18:20;;;;;;;70.40;34.60;;;9.40;99.90;;;;;;5025849;28;20132;-80
2022/10/13 05:20:46;;;;;;;87.55;37.13;;;9.30;99.90;;;;;;5064900;28;20071;-81
2022/10/13 05:23:13;;;;;;;80.07;36.17;;;9.20;99.90;;;;;;5056340;28;20824;-81
2022/10/13 05:25:39;;;;;;;82.68;37.55;;;9.40;99.90;;;;;;5045898;28;20418;-80
2022/10/13 05:28:05;;;;;;;78.50;36.40;;;9.40;99.90;;;;;;5024757;28;20040;-80
2022/10/13 05:30:31;;;;;;;99.97;40.55;;;9.50;99.90;;;;;;5043030;28;20048;-80
2022/10/13 05:32:57;;;;;;;90.72;39.55;;;9.50;99.90;;;;;;5024016;28;20068;-81
2022/10/13 05:35:24;;;;;;;65.63;34.03;;;9.50;99.90;;;;;;5067586;28;20068;-81
2022/10/13 05:37:50;;;;;;;80.75;36.90;;;9.50;99.90;;;;;;5051977;28;20443;-82
2022/10/13 05:40:15;;;;;;;83.47;38.78;;;9.50;99.90;;;;;;5072793;28;20135;-82
2022/10/13 05:42:41;;;;;;;87.80;39.25;;;9.50;99.90;;;;;;5057267;28;20048;-79
2022/10/13 05:45:09;;;;;;;64.53;33.53;;;9.50;99.90;;;;;;5027636;28;20497;-79
2022/10/13 05:47:35;;;;;;;72.15;36.08;;;9.60;99.90;;;;;;5063801;28;20048;-78
2022/10/13 05:50:00;;;;;;;101.50;40.85;;;9.60;99.90;;;;;;5016368;28;20055;-82
2022/10/13 05:52:27;;;;;;;92.72;40.47;;;9.60;99.90;;;;;;5048883;28;20054;-82
2022/10/13 05:54:58;;;;;;;82.47;38.50;;;9.60;99.90;;;;;;5054599;28;20044;-81
2022/10/13 05:57:39;;;;;;;86.22;40.28;;;9.60;99.90;;;;;;5052050;28;20547;-80
2022/10/13 06:00:12;;;;;;;70.72;35.60;;;9.60;99.90;;;;;;5053098;28;20045;-80
2022/10/13 06:02:58;;;;;;;93.00;40.20;;;9.60;99.90;;;;;;5053975;28;20089;-80
2022/10/13 06:05:26;;;;;;;121.05;43.88;;;9.60;99.90;;;;;;5067047;28;20053;-80
2022/10/13 06:07:54;;;;;;;93.78;41.97;;;9.70;99.90;;;;;;5045886;28;20036;-80
2022/10/13 06:10:19;;;;;;;93.30;43.38;;;9.70;99.90;;;;;;5056148;28;20190;-80
2022/10/13 06:12:45;;;;;;;115.50;46.55;;;9.70;99.90;;;;;;5036341;28;20135;-80
2022/10/13 06:15:11;;;;;;;84.93;39.83;;;9.70;99.90;;;;;;5036607;28;20496;-80
2022/10/13 06:17:37;;;;;;;94.82;40.80;;;9.70;99.90;;;;;;5070662;28;20753;-80
2022/10/13 06:20:05;;;;;;;90.57;41.38;;;9.70;99.90;;;;;;5071794;28;20101;-80
2022/10/13 06:22:32;;;;;;;88.18;40.45;;;9.80;99.90;;;;;;5053644;28;20067;-79
2022/10/13 06:24:58;;;;;;;80.95;39.28;;;9.80;99.90;;;;;;5064373;28;20051;-82
2022/10/13 06:27:23;;;;;;;75.90;34.90;;;9.80;99.90;;;;;;5053447;28;20445;-80
2022/10/13 06:29:49;;;;;;;72.15;34.63;;;9.90;99.90;;;;;;5068085;28;20154;-80
2022/10/13 06:32:15;;;;;;;73.43;36.00;;;9.90;99.90;;;;;;5037088;28;20121;-79
2022/10/13 06:34:40;;;;;;;76.10;37.97;;;9.90;99.90;;;;;;5055789;28;20040;-79
2022/10/13 06:37:06;;;;;;;90.47;40.53;;;10.00;99.90;;;;;;5034934;28;20123;-80
2022/10/13 06:39:32;;;;;;;70.57;33.67;;;10.00;99.90;;;;;;5051912;28;20112;-79
2022/10/13 06:41:57;;;;;;;91.93;39.38;;;10.00;99.90;;;;;;5054937;28;20054;-80
2022/10/13 06:44:23;;;;;;;79.70;37.47;;;10.00;99.90;;;;;;5047967;28;20059;-79
2022/10/13 06:46:49;;;;;;;88.72;39.05;;;10.10;99.90;;;;;;5016964;28;20048;-80
2022/10/13 06:49:14;;;;;;;75.95;36.78;;;10.10;99.90;;;;;;5027717;28;20059;-79
2022/10/13 06:51:40;;;;;;;87.75;37.78;;;10.10;99.90;;;;;;5050573;28;20043;-80
2022/10/13 06:54:06;;;;;;;74.15;35.75;;;10.20;99.90;;;;;;5047564;28;20040;-79
2022/10/13 06:56:32;;;;;;;85.32;38.00;;;10.10;99.90;;;;;;5047285;28;20044;-79
2022/10/13 06:58:58;;;;;;;83.95;36.40;;;10.20;99.90;;;;;;5049150;28;20508;-80
2022/10/13 07:01:23;;;;;;;74.93;37.83;;;10.30;99.90;;;;;;5029561;28;20516;-79
2022/10/13 07:03:50;;;;;;;81.60;37.65;;;10.30;99.90;;;;;;5023963;28;20509;-80
2022/10/13 07:06:17;;;;;;;75.45;35.65;;;10.30;99.90;;;;;;5051080;28;20044;-79
2022/10/13 07:08:42;;;;;;;82.70;38.25;;;10.40;99.90;;;;;;5064953;28;20049;-80
2022/10/13 07:11:11;;;;;;;76.10;36.10;;;10.30;99.90;;;;;;5066657;28;20051;-79
2022/10/13 07:13:38;;;;;;;77.78;36.55;;;10.30;99.90;;;;;;5029514;28;20047;-80
2022/10/13 07:16:05;;;;;;;68.68;35.42;;;10.40;99.90;;;;;;5054675;28;20530;-82
2022/10/13 07:18:31;;;;;;;70.13;33.92;;;10.40;99.90;;;;;;5054606;28;20508;-79
2022/10/13 07:20:58;;;;;;;61.58;32.08;;;10.40;99.90;;;;;;5054680;28;20043;-79
2022/10/13 07:23:25;;;;;;;66.82;33.15;;;10.30;99.90;;;;;;5054482;28;20654;-80
2022/10/13 07:25:50;;;;;;;79.40;36.85;;;10.40;99.90;;;;;;5034507;28;20056;-80
2022/10/13 07:28:16;;;;;;;75.25;34.83;;;10.40;99.90;;;;;;5047222;28;20058;-80
2022/10/13 07:30:43;;;;;;;75.38;34.20;;;10.40;99.90;;;;;;5028807;28;20051;-79
2022/10/13 07:33:09;;;;;;;82.57;37.58;;;10.40;99.90;;;;;;5037639;28;20052;-79
2022/10/13 07:35:37;;;;;;;60.03;32.42;;;10.40;99.90;;;;;;5034491;28;20051;-79
2022/10/13 07:38:03;;;;;;;64.10;33.60;;;10.50;99.90;;;;;;5051929;28;20685;-79
2022/10/13 07:40:29;;;;;;;78.35;36.03;;;10.50;99.90;;;;;;5054294;28;20044;-78
2022/10/13 07:42:56;;;;;;;63.42;31.98;;;10.50;99.90;;;;;;5054527;28;20471;-79
2022/10/13 07:45:22;;;;;;;64.15;31.13;;;10.60;99.90;;;;;;5054354;28;20392;-79
2022/10/13 07:47:47;;;;;;;63.33;31.83;;;10.70;99.90;;;;;;5054244;28;20131;-80
2022/10/13 07:50:13;;;;;;;77.60;35.67;;;10.80;99.90;;;;;;5051982;28;20079;-80
2022/10/13 07:52:39;;;;;;;62.08;31.58;;;11.00;99.90;;;;;;5053884;28;20040;-79
2022/10/13 07:55:05;;;;;;;73.82;35.45;;;11.00;99.90;;;;;;5054864;28;20056;-78
2022/10/13 07:57:31;;;;;;;75.28;36.17;;;11.10;99.90;;;;;;5071917;28;20127;-80
2022/10/13 07:59:57;;;;;;;62.35;32.13;;;11.20;99.90;;;;;;5075244;28;20136;-79
2022/10/13 08:02:22;;;;;;;62.60;32.42;;;11.20;99.90;;;;;;5069126;28;20044;-80
2022/10/13 08:04:48;;;;;;;78.10;33.60;;;11.30;99.90;;;;;;5063698;28;20052;-78
2022/10/13 08:07:15;;;;;;;69.07;34.63;;;11.40;99.90;;;;;;5076650;28;20048;-80
2022/10/13 08:09:41;;;;;;;58.35;30.58;;;11.50;99.90;;;;;;5075153;28;20392;-79
2022/10/13 08:47:37;;;;;;;52.67;30.80;;;11.90;99.90;;;;;;5092485;27;21173;-77
2022/10/13 08:50:11;;;;;;;59.90;31.88;;;12.50;99.90;;;;;;5079868;27;20056;-75
2022/10/13 08:52:56;;;;;;;60.88;32.80;;;12.40;99.90;;;;;;5080628;28;20393;-79
2022/10/13 08:55:44;;;;;;;61.95;32.83;;;12.40;99.90;;;;;;5078251;27;20036;-76
2022/10/13 08:58:23;;;;;;;74.70;35.08;;;12.40;99.90;;;;;;5068411;28;20106;-76
2022/10/13 09:01:07;;;;;;;56.47;30.15;;;12.50;99.90;;;;;;5107680;27;20048;-78
2022/10/13 09:04:11;;;;;;;62.67;31.00;;;12.60;99.90;;;;;;5097542;28;20031;-75
2022/10/13 09:06:53;;;;;;;58.50;33.28;;;12.60;99.90;;;;;;5091272;28;20036;-81
2022/10/13 09:09:19;;;;;;;59.85;31.98;;;12.80;99.90;;;;;;5085646;28;20050;-77
2022/10/13 09:11:47;;;;;;;54.05;31.90;;;12.80;99.90;;;;;;5099248;28;20410;-77
2022/10/13 09:14:28;;;;;;;52.95;30.42;;;12.80;99.90;;;;;;5132824;27;20055;-76
2022/10/13 09:16:56;;;;;;;62.88;34.55;;;12.80;99.90;;;;;;5085855;28;20185;-77
2022/10/13 09:19:35;;;;;;;57.25;34.10;;;12.80;99.90;;;;;;5095180;28;20046;-77
2022/10/13 09:22:13;;;;;;;58.53;32.92;;;12.80;99.90;;;;;;5084331;28;20487;-76
2022/10/13 09:24:39;;;;;;;55.63;30.25;;;12.90;99.90;;;;;;5077836;28;20086;-80
2022/10/13 09:27:15;;;;;;;61.05;33.47;;;13.00;99.90;;;;;;5084041;28;20509;-77
2022/10/13 09:29:43;;;;;;;65.72;34.60;;;13.10;99.90;;;;;;5084034;28;20101;-81
2022/10/13 09:32:22;;;;;;;58.85;33.17;;;13.20;99.90;;;;;;5098170;28;20474;-77
2022/10/13 09:34:49;;;;;;;60.53;33.13;;;13.20;99.90;;;;;;5096899;28;20047;-80
2022/10/13 09:37:16;;;;;;;56.78;33.70;;;13.10;99.90;;;;;;5084529;28;20097;-77
2022/10/13 09:39:42;;;;;;;55.95;33.13;;;13.00;99.90;;;;;;5066904;28;20080;-82
2022/10/13 09:42:24;;;;;;;69.32;37.53;;;12.90;99.90;;;;;;5068065;28;20075;-79
2022/10/13 09:44:59;;;;;;;60.75;34.45;;;12.90;99.90;;;;;;5066247;28;20044;-77
2022/10/13 09:47:27;;;;;;;64.28;35.22;;;13.00;99.90;;;;;;5090435;28;20118;-78
2022/10/13 09:50:03;;;;;;;55.47;32.15;;;12.90;99.90;;;;;;5097553;28;20072;-81
2022/10/13 09:52:29;;;;;;;78.60;38.67;;;12.90;99.90;;;;;;5073818;28;20126;-79
2022/10/13 09:54:59;;;;;;;53.03;31.90;;;12.90;99.90;;;;;;5078896;27;20045;-78
2022/10/13 09:57:31;;;;;;;71.05;36.92;;;13.10;99.90;;;;;;5081599;27;20069;-79
2022/10/13 10:00:06;;;;;;;71.35;38.35;;;13.20;99.90;;;;;;5069740;27;20167;-80
2022/10/13 10:02:39;;;;;;;58.30;34.40;;;13.30;99.90;;;;;;5073691;27;20682;-78
2022/10/13 10:05:32;;;;;;;55.05;31.95;;;13.40;99.90;;;;;;5076858;28;20054;-76
2022/10/13 10:08:11;;;;;;;52.50;32.53;;;13.60;99.90;;;;;;5073481;28;20783;-76
2022/10/13 10:10:39;;;;;;;51.88;32.20;;;13.70;99.90;;;;;;5057518;28;20477;-75
2022/10/13 10:13:08;;;;;;;57.45;33.72;;;13.80;99.90;;;;;;5056922;28;20051;-76
2022/10/13 10:16:08;;;;;;;54.25;31.08;;;13.90;99.90;;;;;;5074117;28;20040;-77
2022/10/13 10:18:45;;;;;;;48.28;30.58;;;13.90;99.90;;;;;;5073986;28;20052;-77
2022/10/13 10:21:16;;;;;;;53.42;31.48;;;13.80;99.90;;;;;;5074053;28;20047;-75
2022/10/13 10:23:47;;;;;;;52.70;31.77;;;13.80;99.90;;;;;;5086977;28;20040;-77
2022/10/13 10:26:22;;;;;;;55.17;33.72;;;13.80;99.90;;;;;;5073764;28;20047;-76
2022/10/13 10:29:07;;;;;;;56.58;32.90;;;13.80;99.90;;;;;;5061125;28;20051;-81
2022/10/13 10:31:40;;;;;;;49.35;31.60;;;13.80;99.90;;;;;;5080637;28;20056;-76
2022/10/13 10:34:15;;;;;;;57.28;32.88;;;13.70;99.90;;;;;;5098883;28;20118;-76
2022/10/13 10:36:47;;;;;;;47.08;32.05;;;13.80;99.90;;;;;;5090663;28;20126;-75
2022/10/13 10:39:18;;;;;;;65.32;35.70;;;13.80;99.90;;;;;;5073362;28;20198;-76
2022/10/13 10:42:03;;;;;;;60.13;34.45;;;13.70;99.90;;;;;;5090873;28;20052;-76
2022/10/13 10:44:42;;;;;;;57.50;34.33;;;13.70;99.90;;;;;;5074288;28;20048;-76
2022/10/13 10:47:22;;;;;;;63.10;35.70;;;13.70;99.90;;;;;;5101057;28;20048;-76
2022/10/13 10:49:49;;;;;;;77.78;39.30;;;13.60;99.90;;;;;;5073991;28;20048;-80
2022/10/13 10:52:38;;;;;;;83.75;42.05;;;13.50;99.90;;;;;;5050131;28;20060;-77
2022/10/13 10:55:19;;;;;;;73.80;38.90;;;13.40;99.90;;;;;;5061160;28;20493;-77
2022/10/13 10:58:22;;;;;;;79.25;40.65;;;13.40;99.90;;;;;;5093525;28;20052;-76
2022/10/13 11:01:15;;;;;;;81.88;40.95;;;13.40;99.90;;;;;;5109987;28;20055;-76
2022/10/13 11:04:28;;;;;;;88.15;43.75;;;13.40;99.90;;;;;;5083194;28;20075;-76
2022/10/13 11:06:53;;;;;;;71.65;37.40;;;13.40;99.90;;;;;;5082534;28;20082;-81
2022/10/13 11:09:42;;;;;;;106.35;45.67;;;13.30;99.90;;;;;;5092969;28;20067;-76
2022/10/13 11:12:20;;;;;;;82.43;40.97;;;13.40;99.90;;;;;;5105745;28;20151;-79
2022/10/13 11:14:52;;;;;;;84.50;41.72;;;13.30;99.90;;;;;;5073418;28;20040;-77
2022/10/13 11:17:27;;;;;;;78.45;38.88;;;13.20;99.90;;;;;;5074438;28;20054;-78
2022/10/13 11:19:54;;;;;;;71.28;38.05;;;13.30;99.90;;;;;;5091995;28;20679;-79
2022/10/13 11:22:30;;;;;;;94.00;42.17;;;13.30;99.90;;;;;;5075122;28;20054;-76
2022/10/13 11:24:56;;;;;;;;;;;13.30;99.90;;;;;;5072851;28;20055;-81
2022/10/13 11:27:31;;;;;;;87.43;41.47;;;13.40;99.90;;;;;;5056139;28;19920;-76
2022/10/13 11:29:59;;;;;;;93.30;42.50;;;13.30;99.90;;;;;;5072826;28;20179;-80
2022/10/13 11:35:27;;;;;;;75.95;39.70;;;13.30;99.90;;;;;;5072909;28;20040;-75
2022/10/13 11:37:59;;;;;;;70.28;37.83;;;13.30;99.90;;;;;;5083061;28;20043;-76
2022/10/13 11:40:39;;;;;;;92.35;42.30;;;13.20;99.90;;;;;;5085602;28;20040;-75
2022/10/13 11:43:20;;;;;;;72.70;40.35;;;13.20;99.90;;;;;;5072482;28;20078;-76
2022/10/13 11:46:24;;;;;;;87.00;42.45;;;13.20;99.90;;;;;;5083951;28;20058;-75
2022/10/13 11:48:50;;;;;;;80.05;42.38;;;13.20;99.90;;;;;;5081956;28;20047;-75
2022/10/13 11:51:31;;;;;;;89.15;43.75;;;13.20;99.90;;;;;;5056005;28;20040;-75
2022/10/13 11:54:12;;;;;;;104.60;47.15;;;13.30;99.90;;;;;;5072615;28;20043;-76
2022/10/13 11:56:50;;;;;;;111.75;46.75;;;13.30;99.90;;;;;;5072508;28;20449;-75
2022/10/13 11:59:21;;;;;;;76.40;41.33;;;13.40;99.90;;;;;;5073905;28;20040;-76
2022/10/13 12:01:56;;;;;;;97.55;47.53;;;13.40;99.90;;;;;;5080597;28;20527;-76
2022/10/13 12:04:23;;;;;;;88.25;45.35;;;13.50;99.90;;;;;;5075943;28;20110;-76
2022/10/13 12:07:08;;;;;;;95.07;46.63;;;13.60;99.90;;;;;;5072441;28;20044;-76
2022/10/13 12:09:38;;;;;;;90.18;44.63;;;13.70;99.90;;;;;;5055670;28;20039;-76
2022/10/13 12:12:13;;;;;;;86.03;44.20;;;13.60;99.90;;;;;;5088944;28;20047;-76
2022/10/13 12:14:46;;;;;;;106.03;48.60;;;13.80;99.90;;;;;;5072662;28;20126;-76
2022/10/13 12:17:18;;;;;;;135.82;51.28;;;13.90;99.90;;;;;;5074141;28;20043;-77
2022/10/13 12:19:43;;;;;;;88.38;44.50;;;14.00;99.90;;;;;;5082621;28;20055;-76
2022/10/13 12:22:13;;;;;;;98.38;47.13;;;14.00;99.90;;;;;;5072009;28;20036;-78
2022/10/13 12:24:38;;;;;;;87.32;44.72;;;14.00;99.90;;;;;;5072719;28;20486;-76
2022/10/13 12:27:19;;;;;;;76.88;43.33;;;13.90;99.90;;;;;;5071811;28;20123;-80
2022/10/13 12:29:45;;;;;;;93.72;45.60;;;13.90;99.90;;;;;;5089184;28;20051;-76
2022/10/13 12:32:28;;;;;;;113.05;48.25;;;13.80;99.90;;;;;;5088225;28;20043;-76
2022/10/13 12:34:54;;;;;;;103.97;47.95;;;13.80;99.90;;;;;;5072170;28;20063;-77
2022/10/13 12:37:29;;;;;;;102.70;47.75;;;13.70;99.90;;;;;;5071847;28;20036;-76
2022/10/13 12:39:57;;;;;;;111.03;47.90;;;13.70;99.90;;;;;;5055484;28;20047;-76
2022/10/13 12:42:34;;;;;;;84.78;44.88;;;13.60;99.90;;;;;;5081924;28;20496;-77
2022/10/13 12:45:01;;;;;;;94.60;47.25;;;13.60;99.90;;;;;;5086225;28;20097;-76
2022/10/13 12:47:46;;;;;;;95.07;46.22;;;13.50;99.90;;;;;;5083532;28;20497;-76
2022/10/13 12:50:27;;;;;;;106.05;48.75;;;13.50;99.90;;;;;;5090432;28;20127;-76
2022/10/13 12:53:03;;;;;;;125.13;51.35;;;13.50;99.90;;;;;;5077931;28;20541;-77
2022/10/13 12:55:29;;;;;;;;;;;13.50;99.90;;;;;;5077291;28;20036;-76
2022/10/13 12:57:55;;;;;;;;;;;13.50;99.90;;;;;;5075124;28;19965;-76
2022/10/13 13:00:30;;;;;;;126.47;49.77;;;13.60;99.90;;;;;;5082523;28;19916;-76
2022/10/13 13:02:57;;;;;;;128.88;50.53;;;13.50;99.90;;;;;;5102125;28;20497;-76
2022/10/13 13:05:33;;;;;;;128.95;50.80;;;13.60;99.90;;;;;;5071604;28;20052;-77
2022/10/13 13:08:00;;;;;;;117.72;47.65;;;13.60;99.90;;;;;;5072246;28;20044;-78
2022/10/13 13:10:26;;;;;;;123.90;48.83;;;13.60;99.90;;;;;;5071547;28;20101;-76
2022/10/13 13:12:53;;;;;;;90.10;45.03;;;13.60;99.90;;;;;;5055218;28;20086;-76
2022/10/13 13:15:36;;;;;;;105.43;46.80;;;13.50;99.90;;;;;;5071300;28;20172;-77
2022/10/13 13:18:30;;;;;;;91.60;44.58;;;13.60;99.90;;;;;;5105491;28;20100;-76
2022/10/13 13:20:57;;;;;;;89.07;42.92;;;13.70;99.90;;;;;;5072016;28;20386;-76
2022/10/13 13:23:23;;;;;;;100.22;45.35;;;13.70;99.90;;;;;;5057883;28;20101;-78
2022/10/13 13:26:02;;;;;;;89.68;42.97;;;13.80;99.90;;;;;;5075685;28;20052;-76
2022/10/13 13:28:30;;;;;;;84.07;41.47;;;13.80;99.90;;;;;;5074943;28;20086;-77
2022/10/13 13:30:57;;;;;;;77.32;38.85;;;13.90;99.90;;;;;;5075657;28;20507;-76